Time;durP1;ratioP1;P1;durP2;ratioP2;P2;SDS_P1;SDS_P2;PMS_P1;PMS_P2;Temp;Humidity;BMP_temperature;BMP_pressure;BME280_temperature;BME280_humidity;BME280_pressure;Samples;Min_cycle;Max_cycle;Signal;HPM_P1;HPM_P2
2022/04/21 00:00:21;;;;;;;14.00;6.17;;;6.00;99.90;;;;;;5068913;28;20568;-54
2022/04/21 00:02:47;;;;;;;10.23;6.37;;;6.00;99.90;;;;;;5069916;28;20427;-54
2022/04/21 00:05:13;;;;;;;10.87;6.97;;;6.00;99.90;;;;;;5068326;28;21038;-54
2022/04/21 00:07:39;;;;;;;9.47;6.90;;;6.00;99.90;;;;;;5070677;28;20632;-53
2022/04/21 00:10:06;;;;;;;7.20;5.53;;;5.90;99.90;;;;;;5071223;28;20468;-53
2022/04/21 00:12:33;;;;;;;13.40;7.80;;;5.90;99.90;;;;;;5068820;28;20299;-53
2022/04/21 00:15:00;;;;;;;47.10;26.90;;;5.90;99.90;;;;;;5070915;28;20440;-53
2022/04/21 00:17:25;;;;;;;48.13;23.80;;;5.90;99.90;;;;;;5071513;28;20388;-53
2022/04/21 00:19:51;;;;;;;19.63;11.17;;;5.80;1.00;;;;;;5070606;28;20832;-54
2022/04/21 00:25:01;;;;;;;10.67;6.50;;;5.80;1.00;;;;;;5070344;28;20184;-54
2022/04/21 00:27:26;;;;;;;10.67;6.50;;;5.80;1.00;;;;;;5067252;28;20438;-53
2022/04/21 00:29:52;;;;;;;13.17;6.53;;;5.70;1.00;;;;;;5064172;28;20221;-53
2022/04/21 00:32:17;;;;;;;13.00;7.47;;;5.70;1.00;;;;;;5067256;28;20214;-54
2022/04/21 00:34:43;;;;;;;10.47;7.40;;;5.70;1.00;;;;;;5062728;28;20282;-54
2022/04/21 00:37:10;;;;;;;13.00;7.47;;;5.70;1.00;;;;;;5068504;28;20189;-54
2022/04/21 00:39:35;;;;;;;10.40;7.07;;;5.60;1.00;;;;;;5062942;28;20570;-54
2022/04/21 00:42:02;;;;;;;9.60;6.37;;;5.60;1.00;;;;;;5061397;28;20443;-54
2022/04/21 00:44:29;;;;;;;10.83;7.27;;;5.60;1.00;;;;;;5062777;28;20190;-53
2022/04/21 00:46:57;;;;;;;9.90;6.87;;;5.50;1.00;;;;;;5070592;28;20442;-54
2022/04/21 00:49:25;;;;;;;12.80;7.33;;;5.50;1.00;;;;;;5070167;28;21114;-54
2022/04/21 00:51:52;;;;;;;11.10;7.13;;;5.50;1.00;;;;;;5071421;28;20496;-53
2022/04/21 00:54:18;;;;;;;12.87;8.03;;;5.50;1.00;;;;;;5070677;28;20874;-54
2022/04/21 00:56:44;;;;;;;11.20;7.00;;;5.50;1.00;;;;;;5069556;28;20440;-53
2022/04/21 00:59:11;;;;;;;11.10;7.60;;;5.50;1.00;;;;;;5068752;28;20625;-54
2022/04/21 01:04:22;;;;;;;12.27;7.27;;;5.40;1.00;;;;;;5069546;28;20516;-54
2022/04/21 01:06:49;;;;;;;10.93;6.90;;;5.30;1.00;;;;;;5068993;28;20435;-53
2022/04/21 01:09:15;;;;;;;10.43;7.10;;;5.30;1.00;;;;;;5070293;28;20339;-53
2022/04/21 01:11:40;;;;;;;11.07;6.67;;;5.30;1.00;;;;;;5069272;28;20562;-53
2022/04/21 01:14:07;;;;;;;15.10;7.77;;;5.30;1.00;;;;;;5070393;28;20552;-54
2022/04/21 01:16:32;;;;;;;10.80;6.40;;;5.30;1.00;;;;;;5070169;28;20439;-53
2022/04/21 01:18:59;;;;;;;12.13;6.77;;;5.30;1.00;;;;;;5069240;28;20455;-54
2022/04/21 01:21:24;;;;;;;10.77;6.87;;;5.30;1.00;;;;;;5070546;28;20169;-53
2022/04/21 01:23:50;;;;;;;10.57;6.57;;;5.30;1.00;;;;;;5059950;28;20797;-54
2022/04/21 01:26:17;;;;;;;10.17;7.17;;;5.30;1.00;;;;;;5068714;28;20193;-53
2022/04/21 01:28:45;;;;;;;14.37;7.60;;;5.30;1.00;;;;;;5070572;28;20197;-54
2022/04/21 01:31:11;;;;;;;8.77;6.70;;;5.20;1.00;;;;;;5069249;28;20490;-54
2022/04/21 01:33:37;;;;;;;13.13;7.93;;;5.20;1.00;;;;;;5057330;28;20452;-53
2022/04/21 01:36:04;;;;;;;12.67;7.83;;;5.20;1.00;;;;;;5067067;28;20180;-54
2022/04/21 01:41:14;;;;;;;11.27;7.43;;;5.20;1.00;;;;;;5063975;28;20964;-54
2022/04/21 01:43:41;;;;;;;12.90;6.90;;;5.20;1.00;;;;;;5070028;28;20447;-53
2022/04/21 01:46:07;;;;;;;14.10;7.90;;;5.20;1.00;;;;;;5069952;28;20872;-54
2022/04/21 01:48:32;;;;;;;9.30;6.53;;;5.20;1.00;;;;;;5100761;28;20467;-54
2022/04/21 01:50:58;;;;;;;11.33;7.40;;;5.20;1.00;;;;;;5069031;28;20220;-54
2022/04/21 01:53:24;;;;;;;14.37;7.43;;;5.20;1.00;;;;;;5067581;28;20204;-54
2022/04/21 01:55:49;;;;;;;12.93;7.00;;;5.20;1.00;;;;;;5069160;28;20182;-53
2022/04/21 01:58:15;;;;;;;13.30;7.40;;;5.20;1.00;;;;;;5069215;28;20697;-54
2022/04/21 02:00:40;;;;;;;15.13;7.90;;;5.20;1.00;;;;;;5069081;28;20242;-54
2022/04/21 02:03:06;;;;;;;11.43;6.73;;;5.20;1.00;;;;;;5068522;28;20201;-53
2022/04/21 02:05:32;;;;;;;12.13;7.60;;;5.20;1.00;;;;;;5070249;28;20181;-54
2022/04/21 02:07:58;;;;;;;10.87;6.77;;;5.20;1.00;;;;;;5069025;28;20246;-54
2022/04/21 02:10:24;;;;;;;10.93;7.40;;;5.20;1.00;;;;;;5069580;28;20487;-54
2022/04/21 02:12:50;;;;;;;12.37;7.47;;;5.20;1.00;;;;;;5068754;28;20815;-53
2022/04/21 02:15:19;;;;;;;14.00;7.83;;;5.10;1.00;;;;;;5069022;28;20647;-54
2022/04/21 02:17:45;;;;;;;9.97;6.70;;;5.10;1.00;;;;;;5069707;28;20462;-54
2022/04/21 02:20:15;;;;;;;10.50;6.87;;;5.10;1.00;;;;;;5069655;28;20444;-54
2022/04/21 02:22:41;;;;;;;13.23;7.50;;;5.00;1.00;;;;;;5067774;28;20440;-53
2022/04/21 02:25:09;;;;;;;9.63;7.17;;;5.10;1.00;;;;;;5067587;28;20435;-54
2022/04/21 02:27:40;;;;;;;9.53;6.53;;;5.00;1.00;;;;;;5065132;28;20451;-54
2022/04/21 02:30:08;;;;;;;8.57;6.90;;;5.10;1.00;;;;;;5066682;28;20548;-53
2022/04/21 02:32:34;;;;;;;10.33;7.10;;;5.00;1.00;;;;;;5069715;28;20912;-54
2022/04/21 02:35:00;;;;;;;11.67;7.30;;;5.00;1.00;;;;;;5058619;28;20532;-54
2022/04/21 02:37:26;;;;;;;13.77;7.40;;;5.10;1.00;;;;;;5069052;28;20448;-54
2022/04/21 02:39:51;;;;;;;10.27;6.50;;;5.00;1.00;;;;;;5068128;28;20452;-53
2022/04/21 02:42:19;;;;;;;11.60;7.17;;;5.10;1.00;;;;;;5069104;28;20280;-54
2022/04/21 02:44:45;;;;;;;10.50;7.60;;;5.10;1.00;;;;;;5069500;28;20201;-53
2022/04/21 02:47:11;;;;;;;14.27;7.97;;;5.10;1.00;;;;;;5068885;28;20531;-54
2022/04/21 02:49:37;;;;;;;11.17;6.93;;;5.10;1.00;;;;;;5069042;28;20197;-53
2022/04/21 02:52:09;;;;;;;9.50;7.17;;;5.10;1.00;;;;;;5068596;28;20544;-54
2022/04/21 02:57:22;;;;;;;8.53;6.77;;;5.00;1.00;;;;;;5068977;28;20455;-53
2022/04/21 02:59:49;;;;;;;12.67;7.17;;;5.00;1.00;;;;;;5068453;28;20909;-54
2022/04/21 03:02:15;;;;;;;12.17;7.50;;;5.00;1.00;;;;;;5068438;28;20443;-58
2022/04/21 03:04:40;;;;;;;9.63;6.83;;;5.00;1.00;;;;;;5069398;28;20453;-53
2022/04/21 03:07:06;;;;;;;12.07;7.27;;;5.00;1.00;;;;;;5068106;28;20244;-53
2022/04/21 03:09:32;;;;;;;10.83;7.30;;;4.90;1.00;;;;;;5066967;28;20276;-53
2022/04/21 03:12:02;;;;;;;12.73;7.30;;;4.90;1.00;;;;;;5053570;28;20221;-54
2022/04/21 03:14:27;;;;;;;10.53;7.27;;;4.90;1.00;;;;;;5069904;28;20408;-53
2022/04/21 03:16:53;;;;;;;10.80;7.47;;;4.90;1.00;;;;;;5069401;28;20478;-54
2022/04/21 03:19:19;;;;;;;11.43;6.90;;;4.90;1.00;;;;;;5068328;28;20190;-53
2022/04/21 03:24:29;;;;;;;15.10;6.70;;;4.90;1.00;;;;;;5053242;28;20263;-54
2022/04/21 03:26:55;;;;;;;14.10;7.10;;;4.80;1.00;;;;;;5066938;28;20444;-54
2022/04/21 03:29:21;;;;;;;12.37;6.80;;;4.90;1.00;;;;;;5064532;28;20584;-55
2022/04/21 03:31:48;;;;;;;12.37;7.93;;;4.80;1.00;;;;;;5068585;28;20524;-53
2022/04/21 03:34:16;;;;;;;12.20;8.00;;;4.80;1.00;;;;;;5067794;28;20213;-54
2022/04/21 03:36:48;;;;;;;15.20;7.90;;;4.80;1.00;;;;;;5072505;28;20416;-53
2022/04/21 03:39:19;;;;;;;11.47;7.13;;;4.80;1.00;;;;;;5066215;28;20871;-54
2022/04/21 03:41:45;;;;;;;14.83;8.23;;;4.80;1.00;;;;;;5055373;28;20456;-54
2022/04/21 03:44:13;;;;;;;15.40;7.90;;;4.80;1.00;;;;;;5071430;28;20466;-54
2022/04/21 03:46:38;;;;;;;13.37;7.90;;;4.80;1.00;;;;;;5071212;28;20190;-53
2022/04/21 03:49:07;;;;;;;12.30;7.40;;;4.90;1.00;;;;;;5071343;28;20467;-54
2022/04/21 03:51:33;;;;;;;14.17;6.73;;;4.90;1.00;;;;;;5071648;28;20266;-54
2022/04/21 03:53:59;;;;;;;8.83;7.00;;;4.80;1.00;;;;;;5067434;28;20542;-54
2022/04/21 03:56:26;;;;;;;10.70;7.00;;;4.70;1.00;;;;;;5069661;28;20531;-53
2022/04/21 03:58:52;;;;;;;12.60;6.67;;;4.70;1.00;;;;;;5070942;28;20284;-54
2022/04/21 04:01:19;;;;;;;12.90;7.50;;;4.60;1.00;;;;;;5071531;28;20530;-53
2022/04/21 04:03:45;;;;;;;13.90;7.57;;;4.70;1.00;;;;;;5058191;28;20189;-54
2022/04/21 04:11:39;;;;;;;11.10;7.37;;;4.70;1.00;;;;;;5071413;28;20532;-56
2022/04/21 04:14:05;;;;;;;11.23;7.57;;;4.70;1.00;;;;;;5066976;28;20833;-53
2022/04/21 04:16:34;;;;;;;14.40;7.33;;;4.70;1.00;;;;;;5071985;28;20181;-55
2022/04/21 04:19:00;;;;;;;11.17;7.20;;;4.60;1.00;;;;;;5070476;28;20428;-54
2022/04/21 04:21:26;;;;;;;17.80;7.47;;;4.60;1.00;;;;;;5071883;28;20439;-54
2022/04/21 04:23:52;;;;;;;12.10;7.67;;;4.60;1.00;;;;;;5069730;28;20444;-54
2022/04/21 04:26:17;;;;;;;18.03;8.43;;;4.70;1.00;;;;;;5068738;28;20447;-50
2022/04/21 04:28:43;;;;;;;13.57;8.30;;;4.70;1.00;;;;;;5066108;28;20193;-50
2022/04/21 04:31:08;;;;;;;13.60;7.43;;;4.70;1.00;;;;;;5071955;28;20312;-50
2022/04/21 04:33:34;;;;;;;11.10;7.07;;;4.80;1.00;;;;;;5059460;28;20298;-50
2022/04/21 04:36:00;;;;;;;12.40;7.33;;;4.80;1.00;;;;;;5071057;28;20612;-50
2022/04/21 04:38:26;;;;;;;20.63;7.90;;;4.80;1.00;;;;;;5067892;28;20444;-50
2022/04/21 04:40:51;;;;;;;16.60;8.27;;;4.90;1.00;;;;;;5057879;28;20250;-50
2022/04/21 04:43:17;;;;;;;12.63;7.83;;;4.90;1.00;;;;;;5070654;28;20198;-50
2022/04/21 04:48:26;;;;;;;14.63;7.77;;;5.00;1.00;;;;;;5069859;28;20666;-50
2022/04/21 04:50:52;;;;;;;12.93;7.30;;;5.00;1.00;;;;;;5070754;28;20463;-50
2022/04/21 04:53:17;;;;;;;10.73;7.77;;;5.10;1.00;;;;;;5065698;28;20186;-50
2022/04/21 04:55:43;;;;;;;10.57;6.90;;;5.10;1.00;;;;;;5053239;28;20674;-50
2022/04/21 04:58:08;;;;;;;11.87;7.03;;;5.20;1.00;;;;;;5063171;28;20273;-50
2022/04/21 05:00:34;;;;;;;12.63;7.37;;;5.20;1.00;;;;;;5053407;28;20181;-50
2022/04/21 05:03:03;;;;;;;11.47;7.57;;;5.30;1.00;;;;;;5061830;28;20194;-51
2022/04/21 05:05:30;;;;;;;12.00;6.90;;;5.40;1.00;;;;;;5069773;28;20182;-52
2022/04/21 05:07:55;;;;;;;11.70;7.83;;;5.50;1.00;;;;;;5065035;28;20872;-50
2022/04/21 05:10:23;;;;;;;8.73;6.60;;;5.70;1.00;;;;;;5069483;28;20279;-50
2022/04/21 05:12:48;;;;;;;10.87;6.73;;;5.80;1.00;;;;;;5066848;28;20198;-50
2022/04/21 05:15:14;;;;;;;9.63;6.97;;;6.00;1.00;;;;;;5068783;28;20443;-50
2022/04/21 05:17:40;;;;;;;11.13;7.10;;;6.20;1.00;;;;;;5068936;28;20198;-50
2022/04/21 05:20:06;;;;;;;8.73;6.40;;;6.30;1.00;;;;;;5070338;28;20251;-50
2022/04/21 05:22:37;;;;;;;13.50;6.50;;;6.50;1.00;;;;;;5068284;28;20674;-50
2022/04/21 05:25:10;;;;;;;11.10;6.00;;;6.60;1.00;;;;;;5067821;28;20483;-50
2022/04/21 05:27:37;;;;;;;13.60;6.60;;;6.80;99.90;;;;;;5061825;28;20868;-50
2022/04/21 05:32:51;;;;;;;5.80;4.87;;;7.10;99.90;;;;;;5066408;28;20517;-50
2022/04/21 05:35:17;;;;;;;7.40;5.70;;;7.30;99.90;;;;;;5066371;28;20444;-50
2022/04/21 05:37:43;;;;;;;9.23;5.83;;;7.50;99.90;;;;;;5065737;28;20447;-50
2022/04/21 05:40:09;;;;;;;11.10;6.37;;;7.60;99.90;;;;;;5070022;28;20428;-50
2022/04/21 05:42:38;;;;;;;13.10;5.80;;;7.70;99.90;;;;;;5068555;28;20590;-50
2022/04/21 05:45:05;;;;;;;9.90;5.23;;;7.90;99.90;;;;;;5070328;28;20862;-50
2022/04/21 05:47:32;;;;;;;9.30;5.37;;;8.10;99.90;;;;;;5068596;28;20449;-50
2022/04/21 05:49:58;;;;;;;10.30;5.40;;;8.20;99.90;;;;;;5065739;28;20436;-54
2022/04/21 05:52:28;;;;;;;7.23;5.67;;;8.30;99.90;;;;;;5063006;28;21002;-50
2022/04/21 05:54:54;;;;;;;7.60;5.30;;;8.50;99.90;;;;;;5069014;28;20295;-50
2022/04/21 05:57:19;;;;;;;6.27;4.77;;;8.70;99.90;;;;;;5068654;28;20537;-50
2022/04/21 05:59:45;;;;;;;9.00;5.40;;;8.80;99.90;;;;;;5063975;28;20216;-50
2022/04/21 06:02:11;;;;;;;5.63;4.33;;;9.00;99.90;;;;;;5065975;28;20190;-50
2022/04/21 06:04:38;;;;;;;6.30;4.07;;;9.30;99.90;;;;;;5066544;28;20247;-50
2022/04/21 06:07:04;;;;;;;11.70;5.20;;;9.60;99.90;;;;;;5063498;28;20291;-50
2022/04/21 06:09:29;;;;;;;5.97;4.70;;;9.90;99.90;;;;;;5070180;28;20519;-50
2022/04/21 06:11:55;;;;;;;6.73;4.60;;;10.30;99.90;;;;;;5074867;28;20722;-51
2022/04/21 06:14:20;;;;;;;11.40;4.70;;;10.70;99.90;;;;;;5071756;28;20192;-50
2022/04/21 06:16:46;;;;;;;7.60;4.50;;;11.00;99.90;;;;;;5079343;28;20184;-50
2022/04/21 06:19:11;;;;;;;10.40;4.70;;;11.20;99.90;;;;;;5069403;28;20626;-50
2022/04/21 06:21:37;;;;;;;7.43;4.80;;;11.30;99.90;;;;;;5067680;28;20193;-50
2022/04/21 06:24:02;;;;;;;6.40;4.30;;;11.30;99.90;;;;;;5068651;28;20216;-50
2022/04/21 06:26:28;;;;;;;6.63;4.13;;;11.40;99.90;;;;;;5069772;28;20189;-50
2022/04/21 06:28:59;;;;;;;9.90;7.40;;;11.40;99.90;;;;;;5069516;28;20193;-50
2022/04/21 06:31:25;;;;;;;25.97;13.40;;;11.30;99.90;;;;;;5069806;28;20193;-50
2022/04/21 06:33:51;;;;;;;8.03;4.57;;;11.40;99.90;;;;;;5075957;28;20431;-50
2022/04/21 06:36:16;;;;;;;8.67;3.93;;;11.60;99.90;;;;;;5075522;28;20183;-50
2022/04/21 06:38:42;;;;;;;6.63;4.30;;;11.70;99.90;;;;;;5082308;28;20901;-50
2022/04/21 06:41:07;;;;;;;7.97;4.03;;;12.00;99.90;;;;;;5089777;28;20165;-50
2022/04/21 06:49:01;;;;;;;4.40;4.00;;;12.40;99.90;;;;;;5051668;28;20441;-50
2022/04/21 06:51:27;;;;;;;3.43;3.13;;;12.50;99.90;;;;;;5054829;28;20807;-49
2022/04/21 06:53:53;;;;;;;3.77;3.37;;;12.70;99.90;;;;;;5054977;28;20684;-50
2022/04/21 06:56:19;;;;;;;5.90;3.30;;;12.80;99.90;;;;;;5069869;28;21307;-50
2022/04/21 06:58:45;;;;;;;3.83;3.27;;;12.90;99.90;;;;;;5069489;28;20404;-50
2022/04/21 07:01:10;;;;;;;5.03;3.73;;;13.10;99.90;;;;;;5069558;28;20185;-49
2022/04/21 07:03:36;;;;;;;9.57;3.73;;;13.20;99.90;;;;;;5069389;28;20772;-49
2022/04/21 07:06:03;;;;;;;7.13;4.23;;;13.30;99.90;;;;;;5069351;28;20170;-50
2022/04/21 07:08:28;;;;;;;5.70;3.70;;;13.30;99.90;;;;;;5069558;28;20906;-49
2022/04/21 07:10:54;;;;;;;4.47;3.90;;;13.20;99.90;;;;;;5072385;28;20536;-50
2022/04/21 07:13:20;;;;;;;5.23;3.53;;;13.50;99.90;;;;;;5073167;28;20199;-50
2022/04/21 07:15:45;;;;;;;4.37;3.97;;;13.90;99.90;;;;;;5073206;28;20189;-50
2022/04/21 07:18:14;;;;;;;6.83;3.10;;;14.20;99.90;;;;;;5072841;28;20170;-50
2022/04/21 07:20:39;;;;;;;4.07;3.20;;;14.50;99.90;;;;;;5073222;28;20236;-50
2022/04/21 07:23:05;;;;;;;3.17;2.87;;;14.60;99.90;;;;;;5073069;28;20576;-50
2022/04/21 07:25:32;;;;;;;4.30;3.30;;;14.90;99.90;;;;;;5067811;28;20263;-50
2022/04/21 07:27:57;;;;;;;4.13;3.30;;;15.20;99.90;;;;;;5073147;28;20772;-50
2022/04/21 07:30:23;;;;;;;3.90;3.10;;;15.30;99.90;;;;;;5072824;28;20419;-49
2022/04/21 07:32:48;;;;;;;3.33;3.03;;;15.60;99.90;;;;;;5072614;28;20204;-50
2022/04/21 07:35:14;;;;;;;5.50;3.20;;;15.80;99.90;;;;;;5072870;28;20530;-57
2022/04/21 07:37:40;;;;;;;2.43;2.23;;;15.90;99.90;;;;;;5073088;28;20177;-50
2022/04/21 07:40:06;;;;;;;5.73;3.30;;;16.00;99.90;;;;;;5073039;28;20182;-50
2022/04/21 07:42:32;;;;;;;4.40;2.97;;;16.20;99.90;;;;;;5072822;28;20863;-50
2022/04/21 07:44:59;;;;;;;6.30;3.10;;;16.30;99.90;;;;;;5072907;28;20454;-50
2022/04/21 07:47:24;;;;;;;4.00;2.50;;;16.30;99.90;;;;;;5067163;28;20197;-57
2022/04/21 07:49:50;;;;;;;7.37;3.00;;;16.30;99.90;;;;;;5072511;28;20806;-50
2022/04/21 07:55:26;;;;;;;5.37;3.07;;;16.60;99.90;;;;;;5071602;28;20212;-50
2022/04/21 07:57:53;;;;;;;3.73;2.70;;;17.00;99.90;;;;;;5071013;28;20443;-49
2022/04/21 08:00:19;;;;;;;3.67;3.07;;;17.00;99.90;;;;;;5052437;28;21032;-50
2022/04/21 08:02:46;;;;;;;4.23;2.70;;;17.20;99.90;;;;;;5052008;28;20450;-50
2022/04/21 08:05:14;;;;;;;3.47;2.60;;;17.40;99.90;;;;;;5057477;28;20641;-50
2022/04/21 08:07:40;;;;;;;4.70;3.40;;;17.60;99.90;;;;;;5072436;28;20461;-51
2022/04/21 08:10:09;;;;;;;2.80;2.57;;;17.70;99.90;;;;;;5072274;28;20468;-50
2022/04/21 08:12:42;;;;;;;2.50;2.30;;;17.80;99.90;;;;;;5072122;28;20464;-50
2022/04/21 08:15:09;;;;;;;2.60;2.30;;;17.90;99.90;;;;;;5072169;28;20856;-50
2022/04/21 08:17:38;;;;;;;4.27;2.47;;;18.00;99.90;;;;;;5070592;28;20436;-49
2022/04/21 08:20:09;;;;;;;2.70;2.40;;;18.00;99.90;;;;;;5071644;28;20447;-50
2022/04/21 08:22:35;;;;;;;3.57;2.30;;;18.10;99.90;;;;;;5068054;28;20443;-49
2022/04/21 08:33:21;;;;;;;8.70;2.40;;;18.50;99.90;;;;;;5071754;28;20489;-50
2022/04/21 08:35:49;;;;;;;3.53;2.30;;;18.60;99.90;;;;;;5071824;28;20408;-50
2022/04/21 08:38:15;;;;;;;4.57;2.50;;;18.60;99.90;;;;;;5071706;28;20404;-50
2022/04/21 08:41:04;;;;;;;3.50;2.57;;;18.60;99.90;;;;;;5071667;28;20424;-50
2022/04/21 08:43:30;;;;;;;3.70;2.30;;;18.60;99.90;;;;;;5071777;28;20400;-50
2022/04/21 08:45:56;;;;;;;3.13;2.37;;;18.70;99.90;;;;;;5071753;28;20412;-50
2022/04/21 08:48:24;;;;;;;3.50;2.10;;;18.60;99.90;;;;;;5067286;28;20205;-50
2022/04/21 08:50:50;;;;;;;4.40;2.20;;;18.60;99.90;;;;;;5071688;28;20400;-50
2022/04/21 08:53:27;;;;;;;2.83;2.17;;;18.70;99.90;;;;;;5071511;28;20411;-51
2022/04/21 08:55:52;;;;;;;8.93;2.30;;;18.40;99.90;;;;;;5071635;28;20760;-54
2022/04/21 08:58:19;;;;;;;2.20;2.00;;;18.40;99.90;;;;;;5071365;28;20404;-50
2022/04/21 09:00:45;;;;;;;3.07;2.40;;;18.50;99.90;;;;;;5056780;28;20189;-50
2022/04/21 09:03:12;;;;;;;2.40;2.20;;;18.70;99.90;;;;;;5070805;28;21008;-50
2022/04/21 09:05:39;;;;;;;3.77;2.47;;;18.90;99.90;;;;;;5071119;28;20416;-50
2022/04/21 09:08:05;;;;;;;2.40;2.20;;;19.20;99.90;;;;;;5071239;28;20407;-50
2022/04/21 09:10:35;;;;;;;2.90;2.13;;;19.40;99.90;;;;;;5070947;28;20479;-50
2022/04/21 09:13:02;;;;;;;5.67;2.30;;;19.50;99.90;;;;;;5071162;28;20487;-50
2022/04/21 09:15:31;;;;;;;3.77;2.30;;;19.70;99.90;;;;;;5071249;28;20393;-51
2022/04/21 09:18:01;;;;;;;6.20;2.50;;;19.30;99.90;;;;;;5070999;28;20749;-50
2022/04/21 09:20:35;;;;;;;3.83;2.47;;;19.30;99.90;;;;;;5070936;28;20452;-50
2022/04/21 09:23:03;;;;;;;2.30;2.10;;;19.40;99.90;;;;;;5070788;28;20833;-50
2022/04/21 09:25:31;;;;;;;5.23;2.73;;;19.50;99.90;;;;;;5070672;28;20408;-50
2022/04/21 09:27:58;;;;;;;7.57;2.67;;;19.10;99.90;;;;;;5070749;28;20491;-50
2022/04/21 09:30:24;;;;;;;5.07;2.47;;;19.00;99.90;;;;;;5070548;28;21052;-50
2022/04/21 09:32:59;;;;;;;2.70;2.17;;;18.90;99.90;;;;;;5069925;28;20487;-51
2022/04/21 09:35:27;;;;;;;4.07;2.10;;;19.20;99.90;;;;;;5070803;28;20431;-51
2022/04/21 09:37:54;;;;;;;4.50;2.53;;;19.40;99.90;;;;;;5070877;28;20909;-50
2022/04/21 09:40:27;;;;;;;5.17;2.73;;;19.40;99.90;;;;;;5071104;28;20439;-50
2022/04/21 09:42:54;;;;;;;5.97;2.50;;;19.30;99.90;;;;;;5070528;28;20804;-50
2022/04/21 09:48:22;;;;;;;3.83;2.80;;;18.80;99.90;;;;;;5070528;28;20451;-50
2022/04/21 09:50:53;;;;;;;4.80;2.73;;;18.80;99.90;;;;;;5070350;28;20473;-50
2022/04/21 09:53:21;;;;;;;4.80;2.60;;;18.80;99.90;;;;;;5070393;28;20412;-50
2022/04/21 09:55:47;;;;;;;4.60;2.40;;;18.60;99.90;;;;;;5070268;28;20412;-50
2022/04/21 09:58:14;;;;;;;4.33;2.10;;;18.50;99.90;;;;;;5070304;28;20412;-50
2022/04/21 10:00:41;;;;;;;3.40;2.13;;;18.40;99.90;;;;;;5070311;28;20447;-50
2022/04/21 10:03:07;;;;;;;3.00;2.70;;;18.70;99.90;;;;;;5066111;28;20440;-50
2022/04/21 10:05:35;;;;;;;3.27;2.43;;;18.90;99.90;;;;;;5070535;28;20763;-50
2022/04/21 10:08:02;;;;;;;6.33;2.30;;;19.00;99.90;;;;;;5070443;28;20407;-50
2022/04/21 10:10:29;;;;;;;2.83;2.27;;;19.20;99.90;;;;;;5069920;28;20495;-50
2022/04/21 10:12:56;;;;;;;4.53;2.77;;;19.60;99.90;;;;;;5070350;28;20467;-51
2022/04/21 10:15:22;;;;;;;5.47;2.40;;;20.00;99.90;;;;;;5070465;28;20508;-50
2022/04/21 10:17:47;;;;;;;3.17;2.50;;;20.20;99.90;;;;;;5070630;28;20492;-50
2022/04/21 10:20:14;;;;;;;4.03;2.63;;;20.30;99.90;;;;;;5070522;28;20427;-50
2022/04/21 10:22:41;;;;;;;4.87;2.73;;;20.10;99.90;;;;;;5068906;28;20898;-50
2022/04/21 10:25:07;;;;;;;3.63;2.23;;;19.90;99.90;;;;;;5070396;28;20169;-50
2022/04/21 10:27:45;;;;;;;3.60;2.40;;;19.70;99.90;;;;;;5069990;28;20439;-50
2022/04/21 10:30:21;;;;;;;9.60;2.70;;;19.60;99.90;;;;;;5070146;28;20510;-51
2022/04/21 10:32:54;;;;;;;3.97;2.70;;;19.50;99.90;;;;;;5070531;28;20461;-51
2022/04/21 10:35:29;;;;;;;3.53;2.87;;;19.50;99.90;;;;;;5069910;28;20423;-51
2022/04/21 10:38:12;;;;;;;5.83;2.90;;;19.50;99.90;;;;;;5070228;28;20422;-50
2022/04/21 10:40:56;;;;;;;7.60;3.30;;;19.70;99.90;;;;;;5070257;28;20400;-50
2022/04/21 10:43:22;;;;;;;11.07;2.93;;;19.80;99.90;;;;;;5070526;28;20491;-51
2022/04/21 10:46:16;;;;;;;7.93;3.07;;;20.30;99.90;;;;;;5072723;28;20426;-50
2022/04/21 10:48:43;;;;;;;4.67;2.90;;;20.70;99.90;;;;;;5069811;28;20442;-50
2022/04/21 10:51:09;;;;;;;5.13;3.10;;;20.00;99.90;;;;;;5073220;28;20470;-53
2022/04/21 11:00:09;;;;;;;7.47;3.50;;;19.80;99.90;;;;;;5074385;28;20496;-51
2022/04/21 11:02:41;;;;;;;6.80;4.27;;;20.20;99.90;;;;;;5074358;28;20411;-51
2022/04/21 11:05:22;;;;;;;6.73;3.50;;;20.50;99.90;;;;;;5073819;28;20427;-51
2022/04/21 11:07:56;;;;;;;6.07;3.23;;;20.80;99.90;;;;;;5069702;28;20779;-51
2022/04/21 11:10:36;;;;;;;3.87;2.90;;;21.10;99.90;;;;;;5073161;28;20515;-50
2022/04/21 11:13:02;;;;;;;9.33;3.70;;;21.00;99.90;;;;;;5073932;28;20534;-50
2022/04/21 11:15:36;;;;;;;8.23;3.20;;;20.70;99.90;;;;;;5074450;28;20408;-60
2022/04/21 11:18:19;;;;;;;8.60;3.30;;;20.20;99.90;;;;;;5073918;28;20411;-55
2022/04/21 11:20:47;;;;;;;4.97;3.30;;;19.70;99.90;;;;;;5073424;28;20451;-53
2022/04/21 11:23:45;;;;;;;5.43;3.43;;;19.30;99.90;;;;;;5073365;28;20758;-61
2022/04/21 11:26:11;;;;;;;10.00;3.60;;;19.00;99.90;;;;;;5073632;28;21246;-54
2022/04/21 11:28:44;;;;;;;5.20;3.30;;;18.60;99.90;;;;;;5073836;28;20403;-53
2022/04/21 11:31:10;;;;;;;6.07;4.07;;;18.20;99.90;;;;;;5073383;28;20459;-53
2022/04/21 11:33:39;;;;;;;16.50;3.93;;;17.90;99.90;;;;;;5072740;28;20428;-53
2022/04/21 11:36:15;;;;;;;11.33;3.20;;;17.70;99.90;;;;;;5072609;28;20428;-53
2022/04/21 11:38:45;;;;;;;5.67;3.77;;;17.60;99.90;;;;;;5073819;28;20912;-54
2022/04/21 11:41:13;;;;;;;4.83;3.30;;;17.60;99.90;;;;;;5073017;28;20955;-54
2022/04/21 11:43:46;;;;;;;10.83;3.57;;;17.70;99.90;;;;;;5072965;28;20881;-53
2022/04/21 11:46:13;;;;;;;5.67;3.27;;;17.60;99.90;;;;;;5073187;28;20427;-52
2022/04/21 11:48:40;;;;;;;9.00;3.80;;;17.50;99.90;;;;;;5072716;28;20725;-53
2022/04/21 11:51:07;;;;;;;24.33;10.60;;;17.50;99.90;;;;;;5073265;28;20470;-54
2022/04/21 11:53:40;;;;;;;14.07;8.93;;;17.50;99.90;;;;;;5072706;28;20416;-52
2022/04/21 11:56:07;;;;;;;8.63;3.70;;;17.30;99.90;;;;;;5072205;28;20449;-53
2022/04/21 11:58:38;;;;;;;10.57;3.23;;;17.30;99.90;;;;;;5072444;28;20898;-53
2022/04/21 12:06:46;;;;;;;9.67;4.57;;;17.30;99.90;;;;;;5073057;28;20462;-50
2022/04/21 12:09:20;;;;;;;12.53;3.23;;;17.30;99.90;;;;;;5072667;28;20897;-50
2022/04/21 12:11:58;;;;;;;4.17;2.73;;;17.60;99.90;;;;;;5072672;28;20492;-50
2022/04/21 12:14:25;;;;;;;13.77;3.20;;;17.80;99.90;;;;;;5072582;28;20412;-50
2022/04/21 12:17:04;;;;;;;14.40;3.57;;;17.90;99.90;;;;;;5072734;28;20408;-51
2022/04/21 12:19:41;;;;;;;3.87;3.10;;;17.90;99.90;;;;;;5072146;28;20412;-51
2022/04/21 12:22:12;;;;;;;4.90;2.87;;;18.10;99.90;;;;;;5072382;28;20415;-50
2022/04/21 12:24:39;;;;;;;7.83;3.60;;;18.00;99.90;;;;;;5072441;28;20901;-50
2022/04/21 12:27:11;;;;;;;6.63;2.87;;;17.70;99.90;;;;;;5071358;28;21199;-55
2022/04/21 12:30:04;;;;;;;6.53;3.30;;;17.60;99.90;;;;;;5068852;28;20436;-50
2022/04/21 12:32:35;;;;;;;5.10;2.83;;;18.20;99.90;;;;;;5073427;28;20541;-50
2022/04/21 12:35:08;;;;;;;6.03;2.83;;;18.80;99.90;;;;;;5092600;28;20402;-50
2022/04/21 12:37:35;;;;;;;4.40;2.87;;;19.10;99.90;;;;;;5082048;28;20436;-50
2022/04/21 12:40:07;;;;;;;7.10;3.03;;;19.00;99.90;;;;;;5087286;28;20443;-51
2022/04/21 12:42:33;;;;;;;3.77;2.60;;;19.00;99.90;;;;;;5090428;28;20406;-50
2022/04/21 12:44:59;;;;;;;6.90;2.77;;;18.70;99.90;;;;;;5072142;28;20408;-50
2022/04/21 12:47:25;;;;;;;3.87;2.50;;;18.60;99.90;;;;;;5068925;28;20435;-51
2022/04/21 12:50:06;;;;;;;4.10;2.40;;;18.60;99.90;;;;;;5071840;28;20440;-50
2022/04/21 12:52:40;;;;;;;6.00;3.03;;;18.70;99.90;;;;;;5069262;28;20546;-50
2022/04/21 12:55:19;;;;;;;5.33;2.90;;;18.60;99.90;;;;;;5053385;28;20465;-50
2022/04/21 12:57:59;;;;;;;5.73;2.90;;;18.40;99.90;;;;;;5071247;28;20481;-50
2022/04/21 13:00:26;;;;;;;4.67;2.80;;;18.10;99.90;;;;;;5060022;28;20420;-51
2022/04/21 13:02:53;;;;;;;5.40;2.90;;;18.00;99.90;;;;;;5069476;28;20808;-51
2022/04/21 13:05:19;;;;;;;5.60;3.50;;;17.90;99.90;;;;;;5072762;28;20420;-51
2022/04/21 13:07:45;;;;;;;10.53;3.30;;;17.70;99.90;;;;;;5072829;28;20729;-52
2022/04/21 13:10:11;;;;;;;7.50;3.40;;;18.10;99.90;;;;;;5070628;28;20241;-58
2022/04/21 13:12:36;;;;;;;4.93;3.20;;;18.40;99.90;;;;;;5071683;28;20608;-51
2022/04/21 13:15:06;;;;;;;6.70;3.90;;;18.40;99.90;;;;;;5070246;28;20523;-51
2022/04/21 13:17:32;;;;;;;4.67;3.80;;;18.30;99.90;;;;;;5072039;28;20531;-52
2022/04/21 13:19:57;;;;;;;9.93;3.17;;;17.90;99.90;;;;;;5071465;28;20420;-50
2022/04/21 13:22:23;;;;;;;5.73;3.40;;;17.60;99.90;;;;;;5072004;28;20265;-53
2022/04/21 13:24:48;;;;;;;7.33;3.73;;;17.40;99.90;;;;;;5071581;28;20297;-52
2022/04/21 13:27:18;;;;;;;8.30;3.90;;;17.40;99.90;;;;;;5071744;28;20189;-53
2022/04/21 13:29:44;;;;;;;9.10;3.73;;;17.20;99.90;;;;;;5072470;28;20184;-53
2022/04/21 13:34:54;;;;;;;6.17;3.77;;;17.10;99.90;;;;;;5071894;28;20293;-53
2022/04/21 13:37:19;;;;;;;6.43;3.70;;;16.90;99.90;;;;;;5070655;28;20502;-52
2022/04/21 13:39:45;;;;;;;10.53;4.23;;;16.70;99.90;;;;;;5069611;28;20184;-54
2022/04/21 13:42:11;;;;;;;5.83;4.20;;;16.50;99.90;;;;;;5070834;28;20193;-56
2022/04/21 13:44:36;;;;;;;10.10;4.00;;;16.40;99.90;;;;;;5070812;28;20178;-54
2022/04/21 13:47:05;;;;;;;7.93;3.67;;;16.40;99.90;;;;;;5071249;28;20176;-50
2022/04/21 13:49:32;;;;;;;7.57;3.60;;;16.50;99.90;;;;;;5071908;28;20182;-50
2022/04/21 13:51:59;;;;;;;6.70;4.10;;;16.50;99.90;;;;;;5070967;28;20968;-51